sensor_id;sensor_type;location;lat;lon;timestamp;temperature;humidity
79760;DHT22;70512;42.122;24.732;2024-03-07T00:01:20;8.70;92.70
79760;DHT22;70512;42.122;24.732;2024-03-07T00:03:48;8.90;92.70
79760;DHT22;70512;42.122;24.732;2024-03-07T00:06:16;8.90;92.50
79760;DHT22;70512;42.122;24.732;2024-03-07T00:08:44;8.90;92.50
79760;DHT22;70512;42.122;24.732;2024-03-07T00:11:12;8.90;92.70
79760;DHT22;70512;42.122;24.732;2024-03-07T00:13:39;8.80;92.80
79760;DHT22;70512;42.122;24.732;2024-03-07T00:16:07;8.90;92.90
79760;DHT22;70512;42.122;24.732;2024-03-07T00:18:37;8.80;93.10
79760;DHT22;70512;42.122;24.732;2024-03-07T00:21:04;8.80;93.00
79760;DHT22;70512;42.122;24.732;2024-03-07T00:23:32;8.70;93.00
79760;DHT22;70512;42.122;24.732;2024-03-07T00:26:00;8.60;93.30
79760;DHT22;70512;42.122;24.732;2024-03-07T00:28:28;8.70;93.20
79760;DHT22;70512;42.122;24.732;2024-03-07T00:30:57;8.80;93.20
79760;DHT22;70512;42.122;24.732;2024-03-07T00:33:25;8.90;92.90
79760;DHT22;70512;42.122;24.732;2024-03-07T00:35:52;8.90;92.70
79760;DHT22;70512;42.122;24.732;2024-03-07T00:38:20;8.80;92.90
79760;DHT22;70512;42.122;24.732;2024-03-07T00:40:48;8.80;93.20
79760;DHT22;70512;42.122;24.732;2024-03-07T00:43:16;8.80;93.00
79760;DHT22;70512;42.122;24.732;2024-03-07T00:45:43;8.80;93.00
79760;DHT22;70512;42.122;24.732;2024-03-07T00:48:11;8.90;92.80
79760;DHT22;70512;42.122;24.732;2024-03-07T00:50:39;8.90;92.60
79760;DHT22;70512;42.122;24.732;2024-03-07T00:53:09;8.90;92.60
79760;DHT22;70512;42.122;24.732;2024-03-07T00:55:36;8.90;92.60
79760;DHT22;70512;42.122;24.732;2024-03-07T00:58:04;8.80;92.60
79760;DHT22;70512;42.122;24.732;2024-03-07T01:00:33;8.70;92.60
79760;DHT22;70512;42.122;24.732;2024-03-07T01:03:00;8.70;92.60
79760;DHT22;70512;42.122;24.732;2024-03-07T01:05:28;8.70;92.70
79760;DHT22;70512;42.122;24.732;2024-03-07T01:07:56;8.70;92.90
79760;DHT22;70512;42.122;24.732;2024-03-07T01:10:23;8.70;92.80
79760;DHT22;70512;42.122;24.732;2024-03-07T01:12:51;8.60;92.40
79760;DHT22;70512;42.122;24.732;2024-03-07T01:15:20;8.60;92.60
79760;DHT22;70512;42.122;24.732;2024-03-07T01:17:48;8.50;92.70
79760;DHT22;70512;42.122;24.732;2024-03-07T01:20:15;8.60;92.60
79760;DHT22;70512;42.122;24.732;2024-03-07T01:22:43;8.60;92.40
79760;DHT22;70512;42.122;24.732;2024-03-07T01:25:11;8.60;92.40
79760;DHT22;70512;42.122;24.732;2024-03-07T01:27:39;8.50;92.30
79760;DHT22;70512;42.122;24.732;2024-03-07T01:30:07;8.50;92.40
79760;DHT22;70512;42.122;24.732;2024-03-07T01:32:35;8.40;92.20
79760;DHT22;70512;42.122;24.732;2024-03-07T01:35:03;8.40;92.30
79760;DHT22;70512;42.122;24.732;2024-03-07T01:37:33;8.50;92.30
79760;DHT22;70512;42.122;24.732;2024-03-07T01:40:01;8.60;92.10
79760;DHT22;70512;42.122;24.732;2024-03-07T01:42:31;8.60;91.80
79760;DHT22;70512;42.122;24.732;2024-03-07T01:44:58;8.60;91.80
79760;DHT22;70512;42.122;24.732;2024-03-07T01:47:26;8.60;91.70
79760;DHT22;70512;42.122;24.732;2024-03-07T01:49:54;8.50;91.60
79760;DHT22;70512;42.122;24.732;2024-03-07T01:52:22;8.50;91.80
79760;DHT22;70512;42.122;24.732;2024-03-07T01:54:49;8.50;92.00
79760;DHT22;70512;42.122;24.732;2024-03-07T01:57:17;8.50;91.90
79760;DHT22;70512;42.122;24.732;2024-03-07T01:59:45;8.60;91.70
79760;DHT22;70512;42.122;24.732;2024-03-07T02:02:14;8.60;91.70
79760;DHT22;70512;42.122;24.732;2024-03-07T02:04:42;8.60;91.50
79760;DHT22;70512;42.122;24.732;2024-03-07T02:07:10;8.60;91.60
79760;DHT22;70512;42.122;24.732;2024-03-07T02:09:41;8.70;91.50
79760;DHT22;70512;42.122;24.732;2024-03-07T02:12:09;8.80;91.30
79760;DHT22;70512;42.122;24.732;2024-03-07T02:14:37;8.70;91.30
79760;DHT22;70512;42.122;24.732;2024-03-07T02:17:05;8.70;91.30
79760;DHT22;70512;42.122;24.732;2024-03-07T02:19:33;8.80;91.20
79760;DHT22;70512;42.122;24.732;2024-03-07T02:22:01;8.80;91.10
79760;DHT22;70512;42.122;24.732;2024-03-07T02:24:28;8.60;91.20
79760;DHT22;70512;42.122;24.732;2024-03-07T02:26:56;8.70;91.30
79760;DHT22;70512;42.122;24.732;2024-03-07T02:29:25;8.60;91.40
79760;DHT22;70512;42.122;24.732;2024-03-07T02:31:53;8.60;91.20
79760;DHT22;70512;42.122;24.732;2024-03-07T02:34:21;8.70;91.20
79760;DHT22;70512;42.122;24.732;2024-03-07T02:36:48;8.70;91.20
79760;DHT22;70512;42.122;24.732;2024-03-07T02:39:16;8.70;91.00
79760;DHT22;70512;42.122;24.732;2024-03-07T02:41:43;8.70;91.00
79760;DHT22;70512;42.122;24.732;2024-03-07T02:44:11;8.60;90.90
79760;DHT22;70512;42.122;24.732;2024-03-07T02:46:39;8.50;91.10
79760;DHT22;70512;42.122;24.732;2024-03-07T02:49:07;8.50;91.20
79760;DHT22;70512;42.122;24.732;2024-03-07T02:51:35;8.60;91.20
79760;DHT22;70512;42.122;24.732;2024-03-07T02:54:03;8.60;91.00
79760;DHT22;70512;42.122;24.732;2024-03-07T02:56:32;8.60;91.00
79760;DHT22;70512;42.122;24.732;2024-03-07T02:59:00;8.70;91.00
79760;DHT22;70512;42.122;24.732;2024-03-07T03:01:27;8.60;90.80
79760;DHT22;70512;42.122;24.732;2024-03-07T03:03:55;8.50;90.80
79760;DHT22;70512;42.122;24.732;2024-03-07T03:06:23;8.40;91.10
79760;DHT22;70512;42.122;24.732;2024-03-07T03:08:50;8.40;91.20
79760;DHT22;70512;42.122;24.732;2024-03-07T03:11:20;8.30;91.20
79760;DHT22;70512;42.122;24.732;2024-03-07T03:13:48;8.40;91.10
79760;DHT22;70512;42.122;24.732;2024-03-07T03:16:16;8.30;91.10
79760;DHT22;70512;42.122;24.732;2024-03-07T03:18:43;8.40;91.10
79760;DHT22;70512;42.122;24.732;2024-03-07T03:21:11;8.50;91.00
79760;DHT22;70512;42.122;24.732;2024-03-07T03:23:39;8.40;90.70
79760;DHT22;70512;42.122;24.732;2024-03-07T03:26:07;8.40;90.70
79760;DHT22;70512;42.122;24.732;2024-03-07T03:28:34;8.40;90.70
79760;DHT22;70512;42.122;24.732;2024-03-07T03:31:02;8.30;90.60
79760;DHT22;70512;42.122;24.732;2024-03-07T03:33:30;8.40;90.60
79760;DHT22;70512;42.122;24.732;2024-03-07T03:35:58;8.50;90.40
79760;DHT22;70512;42.122;24.732;2024-03-07T03:38:26;8.50;90.30
79760;DHT22;70512;42.122;24.732;2024-03-07T03:40:54;8.50;90.30
79760;DHT22;70512;42.122;24.732;2024-03-07T03:43:22;8.40;90.20
79760;DHT22;70512;42.122;24.732;2024-03-07T03:45:50;8.40;90.20
79760;DHT22;70512;42.122;24.732;2024-03-07T03:48:18;8.50;90.10
79760;DHT22;70512;42.122;24.732;2024-03-07T03:50:45;8.50;90.60
79760;DHT22;70512;42.122;24.732;2024-03-07T03:53:13;8.60;90.50
79760;DHT22;70512;42.122;24.732;2024-03-07T03:55:41;8.60;90.10
79760;DHT22;70512;42.122;24.732;2024-03-07T03:58:08;8.60;90.10
79760;DHT22;70512;42.122;24.732;2024-03-07T04:00:37;8.60;90.40
79760;DHT22;70512;42.122;24.732;2024-03-07T04:03:05;8.50;90.60
79760;DHT22;70512;42.122;24.732;2024-03-07T04:05:33;8.40;90.40
79760;DHT22;70512;42.122;24.732;2024-03-07T04:08:01;8.50;90.60
79760;DHT22;70512;42.122;24.732;2024-03-07T04:10:30;8.60;90.50
79760;DHT22;70512;42.122;24.732;2024-03-07T04:12:58;8.50;90.30
79760;DHT22;70512;42.122;24.732;2024-03-07T04:15:25;8.50;90.20
79760;DHT22;70512;42.122;24.732;2024-03-07T04:17:55;8.40;90.10
79760;DHT22;70512;42.122;24.732;2024-03-07T04:20:23;8.40;90.30
79760;DHT22;70512;42.122;24.732;2024-03-07T04:22:51;8.50;90.10
79760;DHT22;70512;42.122;24.732;2024-03-07T04:25:19;8.40;90.10
79760;DHT22;70512;42.122;24.732;2024-03-07T04:27:46;8.40;90.30
79760;DHT22;70512;42.122;24.732;2024-03-07T04:30:16;8.40;90.30
79760;DHT22;70512;42.122;24.732;2024-03-07T04:32:43;8.40;90.30
79760;DHT22;70512;42.122;24.732;2024-03-07T04:35:11;8.30;90.30
79760;DHT22;70512;42.122;24.732;2024-03-07T04:37:39;8.20;90.60
79760;DHT22;70512;42.122;24.732;2024-03-07T04:40:09;8.30;90.60
79760;DHT22;70512;42.122;24.732;2024-03-07T04:42:43;8.30;90.70
79760;DHT22;70512;42.122;24.732;2024-03-07T04:45:13;8.30;90.60
79760;DHT22;70512;42.122;24.732;2024-03-07T04:47:41;8.20;90.60
79760;DHT22;70512;42.122;24.732;2024-03-07T04:50:11;8.20;90.80
79760;DHT22;70512;42.122;24.732;2024-03-07T04:52:39;8.20;90.90
79760;DHT22;70512;42.122;24.732;2024-03-07T04:55:07;8.20;91.20
79760;DHT22;70512;42.122;24.732;2024-03-07T04:57:37;8.20;91.20
79760;DHT22;70512;42.122;24.732;2024-03-07T05:00:08;8.20;91.30
79760;DHT22;70512;42.122;24.732;2024-03-07T05:02:37;8.30;91.60
79760;DHT22;70512;42.122;24.732;2024-03-07T05:05:05;8.30;91.20
79760;DHT22;70512;42.122;24.732;2024-03-07T05:07:35;8.30;91.60
79760;DHT22;70512;42.122;24.732;2024-03-07T05:10:04;8.30;91.60
79760;DHT22;70512;42.122;24.732;2024-03-07T05:12:33;8.20;92.10
79760;DHT22;70512;42.122;24.732;2024-03-07T05:15:00;8.10;92.20
79760;DHT22;70512;42.122;24.732;2024-03-07T05:17:30;8.00;92.70
79760;DHT22;70512;42.122;24.732;2024-03-07T05:19:59;8.10;92.40
79760;DHT22;70512;42.122;24.732;2024-03-07T05:22:27;8.10;92.80
79760;DHT22;70512;42.122;24.732;2024-03-07T05:24:56;8.00;92.70
79760;DHT22;70512;42.122;24.732;2024-03-07T05:27:25;8.20;93.10
79760;DHT22;70512;42.122;24.732;2024-03-07T05:29:54;8.30;93.00
79760;DHT22;70512;42.122;24.732;2024-03-07T05:32:26;8.30;93.40
79760;DHT22;70512;42.122;24.732;2024-03-07T05:34:52;8.30;93.20
79760;DHT22;70512;42.122;24.732;2024-03-07T05:37:20;8.40;93.10
79760;DHT22;70512;42.122;24.732;2024-03-07T05:39:49;8.50;93.20
79760;DHT22;70512;42.122;24.732;2024-03-07T05:42:16;8.50;93.00
79760;DHT22;70512;42.122;24.732;2024-03-07T05:44:44;8.50;92.30
79760;DHT22;70512;42.122;24.732;2024-03-07T05:47:12;8.50;92.40
79760;DHT22;70512;42.122;24.732;2024-03-07T05:49:43;8.60;92.40
79760;DHT22;70512;42.122;24.732;2024-03-07T05:52:11;8.50;92.40
79760;DHT22;70512;42.122;24.732;2024-03-07T05:54:39;8.60;92.50
79760;DHT22;70512;42.122;24.732;2024-03-07T05:57:07;8.50;92.40
79760;DHT22;70512;42.122;24.732;2024-03-07T05:59:35;8.40;92.50
79760;DHT22;70512;42.122;24.732;2024-03-07T06:02:02;8.50;92.40
79760;DHT22;70512;42.122;24.732;2024-03-07T06:04:31;8.50;92.60
79760;DHT22;70512;42.122;24.732;2024-03-07T06:06:59;8.60;92.50
79760;DHT22;70512;42.122;24.732;2024-03-07T06:09:26;8.60;92.50
79760;DHT22;70512;42.122;24.732;2024-03-07T06:11:54;8.60;92.80
79760;DHT22;70512;42.122;24.732;2024-03-07T06:14:22;8.60;92.60
79760;DHT22;70512;42.122;24.732;2024-03-07T06:16:51;8.70;92.70
79760;DHT22;70512;42.122;24.732;2024-03-07T06:19:21;8.70;92.50
79760;DHT22;70512;42.122;24.732;2024-03-07T06:21:49;8.50;92.60
79760;DHT22;70512;42.122;24.732;2024-03-07T06:24:18;8.50;92.60
79760;DHT22;70512;42.122;24.732;2024-03-07T06:26:47;8.70;92.60
79760;DHT22;70512;42.122;24.732;2024-03-07T06:29:20;8.70;92.70
79760;DHT22;70512;42.122;24.732;2024-03-07T06:31:48;8.70;93.20
79760;DHT22;70512;42.122;24.732;2024-03-07T06:34:16;8.90;93.20
79760;DHT22;70512;42.122;24.732;2024-03-07T06:36:44;9.00;92.60
79760;DHT22;70512;42.122;24.732;2024-03-07T06:39:12;9.00;92.20
79760;DHT22;70512;42.122;24.732;2024-03-07T06:41:40;9.00;92.30
79760;DHT22;70512;42.122;24.732;2024-03-07T06:44:09;9.10;92.60
79760;DHT22;70512;42.122;24.732;2024-03-07T06:46:37;9.20;92.60
79760;DHT22;70512;42.122;24.732;2024-03-07T06:49:05;9.30;92.70
79760;DHT22;70512;42.122;24.732;2024-03-07T06:51:34;9.30;92.20
79760;DHT22;70512;42.122;24.732;2024-03-07T06:54:02;9.30;92.00
79760;DHT22;70512;42.122;24.732;2024-03-07T06:56:29;9.40;92.20
79760;DHT22;70512;42.122;24.732;2024-03-07T06:58:57;9.50;92.30
79760;DHT22;70512;42.122;24.732;2024-03-07T07:01:26;9.50;92.00
79760;DHT22;70512;42.122;24.732;2024-03-07T07:03:56;9.60;91.70
79760;DHT22;70512;42.122;24.732;2024-03-07T07:06:25;9.60;91.20
79760;DHT22;70512;42.122;24.732;2024-03-07T07:08:56;9.40;91.40
79760;DHT22;70512;42.122;24.732;2024-03-07T07:11:25;9.40;91.50
79760;DHT22;70512;42.122;24.732;2024-03-07T07:13:54;9.50;91.60
79760;DHT22;70512;42.122;24.732;2024-03-07T07:16:22;9.60;91.60
79760;DHT22;70512;42.122;24.732;2024-03-07T07:18:52;9.70;91.20
79760;DHT22;70512;42.122;24.732;2024-03-07T07:21:19;9.70;91.20
79760;DHT22;70512;42.122;24.732;2024-03-07T07:23:47;9.70;90.90
79760;DHT22;70512;42.122;24.732;2024-03-07T07:26:15;9.60;90.70
79760;DHT22;70512;42.122;24.732;2024-03-07T07:28:43;9.60;90.80
79760;DHT22;70512;42.122;24.732;2024-03-07T07:31:11;9.60;90.60
79760;DHT22;70512;42.122;24.732;2024-03-07T07:33:38;9.60;90.50
79760;DHT22;70512;42.122;24.732;2024-03-07T07:36:06;9.50;91.00
79760;DHT22;70512;42.122;24.732;2024-03-07T07:38:34;9.60;90.70
79760;DHT22;70512;42.122;24.732;2024-03-07T07:41:01;9.80;90.20
79760;DHT22;70512;42.122;24.732;2024-03-07T07:43:29;9.90;89.50
79760;DHT22;70512;42.122;24.732;2024-03-07T07:45:57;9.80;89.40
79760;DHT22;70512;42.122;24.732;2024-03-07T07:48:25;9.90;89.30
79760;DHT22;70512;42.122;24.732;2024-03-07T07:50:53;9.80;89.20
79760;DHT22;70512;42.122;24.732;2024-03-07T07:53:21;9.70;89.50
79760;DHT22;70512;42.122;24.732;2024-03-07T07:55:49;9.70;89.50
79760;DHT22;70512;42.122;24.732;2024-03-07T07:58:17;9.60;89.30
79760;DHT22;70512;42.122;24.732;2024-03-07T08:00:45;9.70;89.30
79760;DHT22;70512;42.122;24.732;2024-03-07T08:03:14;9.70;89.40
79760;DHT22;70512;42.122;24.732;2024-03-07T08:05:44;9.60;89.50
79760;DHT22;70512;42.122;24.732;2024-03-07T08:08:12;9.80;89.40
79760;DHT22;70512;42.122;24.732;2024-03-07T08:10:41;9.80;89.20
79760;DHT22;70512;42.122;24.732;2024-03-07T08:13:11;9.90;88.20
79760;DHT22;70512;42.122;24.732;2024-03-07T08:15:40;9.90;88.80
79760;DHT22;70512;42.122;24.732;2024-03-07T08:18:08;9.90;88.70
79760;DHT22;70512;42.122;24.732;2024-03-07T08:20:36;10.00;88.50
79760;DHT22;70512;42.122;24.732;2024-03-07T08:23:04;10.10;88.20
79760;DHT22;70512;42.122;24.732;2024-03-07T08:25:31;10.20;87.80
79760;DHT22;70512;42.122;24.732;2024-03-07T08:28:00;10.30;86.20
79760;DHT22;70512;42.122;24.732;2024-03-07T08:30:28;10.50;86.00
79760;DHT22;70512;42.122;24.732;2024-03-07T08:32:56;10.60;85.30
79760;DHT22;70512;42.122;24.732;2024-03-07T08:35:25;10.70;85.20
79760;DHT22;70512;42.122;24.732;2024-03-07T08:37:54;10.70;85.00
79760;DHT22;70512;42.122;24.732;2024-03-07T08:40:23;10.60;84.70
79760;DHT22;70512;42.122;24.732;2024-03-07T08:42:53;10.60;85.10
79760;DHT22;70512;42.122;24.732;2024-03-07T08:45:21;10.50;85.70
79760;DHT22;70512;42.122;24.732;2024-03-07T08:47:53;10.60;85.00
79760;DHT22;70512;42.122;24.732;2024-03-07T08:50:23;10.40;85.70
79760;DHT22;70512;42.122;24.732;2024-03-07T08:52:51;10.30;85.30
79760;DHT22;70512;42.122;24.732;2024-03-07T08:55:25;10.30;86.40
79760;DHT22;70512;42.122;24.732;2024-03-07T08:57:54;10.40;86.80
79760;DHT22;70512;42.122;24.732;2024-03-07T09:00:21;10.50;85.90
79760;DHT22;70512;42.122;24.732;2024-03-07T09:02:56;10.70;85.80
79760;DHT22;70512;42.122;24.732;2024-03-07T09:05:30;10.90;85.10
79760;DHT22;70512;42.122;24.732;2024-03-07T09:08:01;11.10;83.90
79760;DHT22;70512;42.122;24.732;2024-03-07T09:10:30;11.10;82.90
79760;DHT22;70512;42.122;24.732;2024-03-07T09:12:58;11.40;83.10
79760;DHT22;70512;42.122;24.732;2024-03-07T09:15:25;11.60;81.60
79760;DHT22;70512;42.122;24.732;2024-03-07T09:17:54;11.70;80.80
79760;DHT22;70512;42.122;24.732;2024-03-07T09:20:22;11.70;80.70
79760;DHT22;70512;42.122;24.732;2024-03-07T09:22:50;11.80;80.40
79760;DHT22;70512;42.122;24.732;2024-03-07T09:25:19;11.80;80.30
79760;DHT22;70512;42.122;24.732;2024-03-07T09:27:47;11.80;80.40
79760;DHT22;70512;42.122;24.732;2024-03-07T09:30:15;11.70;80.50
79760;DHT22;70512;42.122;24.732;2024-03-07T09:32:44;11.80;80.70
79760;DHT22;70512;42.122;24.732;2024-03-07T09:35:12;11.80;79.70
79760;DHT22;70512;42.122;24.732;2024-03-07T09:37:41;11.70;80.20
79760;DHT22;70512;42.122;24.732;2024-03-07T09:40:10;11.50;80.80
79760;DHT22;70512;42.122;24.732;2024-03-07T09:42:43;11.60;81.20
79760;DHT22;70512;42.122;24.732;2024-03-07T09:45:19;11.60;81.50
79760;DHT22;70512;42.122;24.732;2024-03-07T09:47:50;11.60;81.40
79760;DHT22;70512;42.122;24.732;2024-03-07T09:50:19;11.60;81.20
79760;DHT22;70512;42.122;24.732;2024-03-07T09:52:52;11.60;81.70
79760;DHT22;70512;42.122;24.732;2024-03-07T09:55:23;11.40;81.50
79760;DHT22;70512;42.122;24.732;2024-03-07T09:57:52;10.80;83.80
79760;DHT22;70512;42.122;24.732;2024-03-07T10:00:23;10.70;85.00
79760;DHT22;70512;42.122;24.732;2024-03-07T10:03:15;10.60;85.40
79760;DHT22;70512;42.122;24.732;2024-03-07T10:05:25;10.30;85.80
79760;DHT22;70512;42.122;24.732;2024-03-07T10:07:53;10.30;86.50
79760;DHT22;70512;42.122;24.732;2024-03-07T10:10:21;10.20;86.80
79760;DHT22;70512;42.122;24.732;2024-03-07T10:12:49;10.00;87.20
79760;DHT22;70512;42.122;24.732;2024-03-07T10:15:21;9.80;88.10
79760;DHT22;70512;42.122;24.732;2024-03-07T10:17:49;9.50;89.30
79760;DHT22;70512;42.122;24.732;2024-03-07T10:20:18;9.60;90.00
79760;DHT22;70512;42.122;24.732;2024-03-07T10:22:51;9.60;89.50
79760;DHT22;70512;42.122;24.732;2024-03-07T10:25:23;9.60;89.90
79760;DHT22;70512;42.122;24.732;2024-03-07T10:27:51;9.50;90.40
79760;DHT22;70512;42.122;24.732;2024-03-07T10:30:19;9.50;90.50
79760;DHT22;70512;42.122;24.732;2024-03-07T10:32:48;9.50;90.70
79760;DHT22;70512;42.122;24.732;2024-03-07T10:35:22;9.50;90.70
79760;DHT22;70512;42.122;24.732;2024-03-07T10:37:53;9.40;90.70
79760;DHT22;70512;42.122;24.732;2024-03-07T10:40:23;9.40;90.80
79760;DHT22;70512;42.122;24.732;2024-03-07T10:42:56;9.40;90.90
79760;DHT22;70512;42.122;24.732;2024-03-07T10:45:27;9.30;90.70
79760;DHT22;70512;42.122;24.732;2024-03-07T10:47:58;9.20;91.20
79760;DHT22;70512;42.122;24.732;2024-03-07T10:50:39;8.90;91.80
79760;DHT22;70512;42.122;24.732;2024-03-07T10:53:33;8.90;92.20
79760;DHT22;70512;42.122;24.732;2024-03-07T10:56:18;9.00;92.70
79760;DHT22;70512;42.122;24.732;2024-03-07T10:59:16;9.10;93.20
79760;DHT22;70512;42.122;24.732;2024-03-07T11:02:06;9.10;93.00
79760;DHT22;70512;42.122;24.732;2024-03-07T11:04:17;9.20;93.50
79760;DHT22;70512;42.122;24.732;2024-03-07T11:06:47;9.20;93.30
79760;DHT22;70512;42.122;24.732;2024-03-07T11:09:19;9.30;93.30
79760;DHT22;70512;42.122;24.732;2024-03-07T11:11:56;9.30;93.60
79760;DHT22;70512;42.122;24.732;2024-03-07T11:16:58;9.30;94.20
79760;DHT22;70512;42.122;24.732;2024-03-07T11:19:31;9.30;94.20
79760;DHT22;70512;42.122;24.732;2024-03-07T11:22:04;9.30;94.30
79760;DHT22;70512;42.122;24.732;2024-03-07T11:24:30;9.30;94.10
79760;DHT22;70512;42.122;24.732;2024-03-07T11:27:04;9.40;94.30
79760;DHT22;70512;42.122;24.732;2024-03-07T11:29:43;9.50;94.10
79760;DHT22;70512;42.122;24.732;2024-03-07T11:32:12;9.50;93.80
79760;DHT22;70512;42.122;24.732;2024-03-07T11:34:44;9.60;93.90
79760;DHT22;70512;42.122;24.732;2024-03-07T11:37:38;9.60;93.70
79760;DHT22;70512;42.122;24.732;2024-03-07T11:40:08;9.70;93.60
79760;DHT22;70512;42.122;24.732;2024-03-07T11:42:37;9.80;93.50
79760;DHT22;70512;42.122;24.732;2024-03-07T11:45:07;9.80;93.30
79760;DHT22;70512;42.122;24.732;2024-03-07T11:47:38;9.80;93.60
79760;DHT22;70512;42.122;24.732;2024-03-07T11:50:06;9.80;93.50
79760;DHT22;70512;42.122;24.732;2024-03-07T11:52:39;9.80;93.70
79760;DHT22;70512;42.122;24.732;2024-03-07T11:55:10;9.80;93.60
79760;DHT22;70512;42.122;24.732;2024-03-07T11:57:42;9.80;93.50
79760;DHT22;70512;42.122;24.732;2024-03-07T12:00:11;9.70;93.00
79760;DHT22;70512;42.122;24.732;2024-03-07T12:02:40;9.80;93.50
79760;DHT22;70512;42.122;24.732;2024-03-07T12:05:10;9.70;93.60
79760;DHT22;70512;42.122;24.732;2024-03-07T12:07:39;9.60;93.30
79760;DHT22;70512;42.122;24.732;2024-03-07T12:10:07;9.70;93.50
79760;DHT22;70512;42.122;24.732;2024-03-07T12:12:35;9.80;93.10
79760;DHT22;70512;42.122;24.732;2024-03-07T12:15:06;9.90;92.90
79760;DHT22;70512;42.122;24.732;2024-03-07T12:17:35;10.00;92.70
79760;DHT22;70512;42.122;24.732;2024-03-07T12:20:04;10.00;93.20
79760;DHT22;70512;42.122;24.732;2024-03-07T12:22:35;9.80;92.50
79760;DHT22;70512;42.122;24.732;2024-03-07T12:25:04;9.80;93.00
79760;DHT22;70512;42.122;24.732;2024-03-07T12:27:33;9.80;93.30
79760;DHT22;70512;42.122;24.732;2024-03-07T12:30:01;9.80;93.00
79760;DHT22;70512;42.122;24.732;2024-03-07T12:32:30;9.80;93.20
79760;DHT22;70512;42.122;24.732;2024-03-07T12:34:58;9.90;93.40
79760;DHT22;70512;42.122;24.732;2024-03-07T12:37:25;9.80;92.80
79760;DHT22;70512;42.122;24.732;2024-03-07T12:39:55;9.80;93.40
79760;DHT22;70512;42.122;24.732;2024-03-07T12:42:30;9.80;93.10
79760;DHT22;70512;42.122;24.732;2024-03-07T12:44:58;9.80;93.20
79760;DHT22;70512;42.122;24.732;2024-03-07T12:47:26;10.00;93.10
79760;DHT22;70512;42.122;24.732;2024-03-07T12:49:54;10.10;92.70
79760;DHT22;70512;42.122;24.732;2024-03-07T12:52:23;10.50;92.60
79760;DHT22;70512;42.122;24.732;2024-03-07T12:54:51;10.80;91.10
79760;DHT22;70512;42.122;24.732;2024-03-07T12:57:20;10.70;90.50
79760;DHT22;70512;42.122;24.732;2024-03-07T12:59:49;10.60;90.70
79760;DHT22;70512;42.122;24.732;2024-03-07T13:02:19;10.50;90.80
79760;DHT22;70512;42.122;24.732;2024-03-07T13:04:47;10.50;90.80
79760;DHT22;70512;42.122;24.732;2024-03-07T13:07:16;10.50;91.20
79760;DHT22;70512;42.122;24.732;2024-03-07T13:09:44;10.60;90.60
79760;DHT22;70512;42.122;24.732;2024-03-07T13:12:13;10.60;90.70
79760;DHT22;70512;42.122;24.732;2024-03-07T13:14:41;10.70;91.00
79760;DHT22;70512;42.122;24.732;2024-03-07T13:17:10;10.90;91.30
79760;DHT22;70512;42.122;24.732;2024-03-07T13:19:40;11.20;90.20
79760;DHT22;70512;42.122;24.732;2024-03-07T13:22:09;11.40;89.00
79760;DHT22;70512;42.122;24.732;2024-03-07T13:24:38;11.40;89.10
79760;DHT22;70512;42.122;24.732;2024-03-07T13:27:08;11.40;89.70
79760;DHT22;70512;42.122;24.732;2024-03-07T13:29:37;11.10;89.60
79760;DHT22;70512;42.122;24.732;2024-03-07T13:32:05;10.80;88.90
79760;DHT22;70512;42.122;24.732;2024-03-07T13:34:33;10.60;90.60
79760;DHT22;70512;42.122;24.732;2024-03-07T13:37:01;10.70;90.70
79760;DHT22;70512;42.122;24.732;2024-03-07T13:39:30;10.90;90.60
79760;DHT22;70512;42.122;24.732;2024-03-07T13:41:58;10.90;89.10
79760;DHT22;70512;42.122;24.732;2024-03-07T13:44:26;10.80;90.00
79760;DHT22;70512;42.122;24.732;2024-03-07T13:46:55;10.90;89.70
79760;DHT22;70512;42.122;24.732;2024-03-07T13:49:24;11.10;87.70
79760;DHT22;70512;42.122;24.732;2024-03-07T13:51:55;11.20;87.00
79760;DHT22;70512;42.122;24.732;2024-03-07T13:54:25;11.50;86.30
79760;DHT22;70512;42.122;24.732;2024-03-07T14:06:00;12.00;83.10
79760;DHT22;70512;42.122;24.732;2024-03-07T14:09:13;12.10;83.10
79760;DHT22;70512;42.122;24.732;2024-03-07T14:14:34;11.80;83.10
79760;DHT22;70512;42.122;24.732;2024-03-07T14:26:25;11.90;81.40
79760;DHT22;70512;42.122;24.732;2024-03-07T14:31:25;11.40;82.80
79760;DHT22;70512;42.122;24.732;2024-03-07T14:34:00;11.40;83.30
79760;DHT22;70512;42.122;24.732;2024-03-07T14:36:43;11.20;82.80
79760;DHT22;70512;42.122;24.732;2024-03-07T14:39:11;11.20;84.60
79760;DHT22;70512;42.122;24.732;2024-03-07T14:41:50;11.40;84.40
79760;DHT22;70512;42.122;24.732;2024-03-07T14:44:16;11.70;82.30
79760;DHT22;70512;42.122;24.732;2024-03-07T14:46:46;11.90;80.20
79760;DHT22;70512;42.122;24.732;2024-03-07T14:49:16;11.60;82.50
79760;DHT22;70512;42.122;24.732;2024-03-07T14:51:45;11.50;82.50
79760;DHT22;70512;42.122;24.732;2024-03-07T14:54:15;11.40;83.60
79760;DHT22;70512;42.122;24.732;2024-03-07T14:56:43;11.30;84.30
79760;DHT22;70512;42.122;24.732;2024-03-07T14:59:11;11.20;84.80
79760;DHT22;70512;42.122;24.732;2024-03-07T15:01:39;11.10;85.20
79760;DHT22;70512;42.122;24.732;2024-03-07T15:04:07;10.80;85.40
79760;DHT22;70512;42.122;24.732;2024-03-07T15:06:39;10.60;86.20
79760;DHT22;70512;42.122;24.732;2024-03-07T15:09:07;10.70;86.10
79760;DHT22;70512;42.122;24.732;2024-03-07T15:11:37;10.70;86.60
79760;DHT22;70512;42.122;24.732;2024-03-07T15:14:07;10.60;87.70
79760;DHT22;70512;42.122;24.732;2024-03-07T15:16:38;10.80;87.50
79760;DHT22;70512;42.122;24.732;2024-03-07T15:19:08;10.80;87.80
79760;DHT22;70512;42.122;24.732;2024-03-07T15:21:38;10.70;87.90
79760;DHT22;70512;42.122;24.732;2024-03-07T15:24:06;10.60;88.00
79760;DHT22;70512;42.122;24.732;2024-03-07T15:26:34;10.60;88.30
79760;DHT22;70512;42.122;24.732;2024-03-07T15:29:02;10.50;89.20
79760;DHT22;70512;42.122;24.732;2024-03-07T15:31:30;10.50;89.00
79760;DHT22;70512;42.122;24.732;2024-03-07T15:33:58;10.40;88.40
79760;DHT22;70512;42.122;24.732;2024-03-07T15:36:26;10.20;88.80
79760;DHT22;70512;42.122;24.732;2024-03-07T15:38:57;10.10;89.70
79760;DHT22;70512;42.122;24.732;2024-03-07T15:41:25;10.30;90.30
79760;DHT22;70512;42.122;24.732;2024-03-07T15:43:53;10.30;90.30
79760;DHT22;70512;42.122;24.732;2024-03-07T15:46:21;10.30;90.30
79760;DHT22;70512;42.122;24.732;2024-03-07T15:48:49;10.30;89.90
79760;DHT22;70512;42.122;24.732;2024-03-07T15:51:16;10.20;90.10
79760;DHT22;70512;42.122;24.732;2024-03-07T15:53:46;10.20;90.00
79760;DHT22;70512;42.122;24.732;2024-03-07T15:56:14;10.20;90.00
79760;DHT22;70512;42.122;24.732;2024-03-07T15:58:42;10.20;90.00
79760;DHT22;70512;42.122;24.732;2024-03-07T16:01:12;10.20;90.40
79760;DHT22;70512;42.122;24.732;2024-03-07T16:03:42;10.00;90.40